sensor_id;sensor_type;location;lat;lon;timestamp;pressure;altitude;pressure_sealevel;temperature;humidity
55687;BME280;41911;52.362;4.978;2023-05-07T00:00:24;101649.12;;;16.51;51.42
55687;BME280;41911;52.362;4.978;2023-05-07T00:00:56;101648.05;;;16.40;51.40
55687;BME280;41911;52.362;4.978;2023-05-07T00:01:27;101647.79;;;16.43;51.39
55687;BME280;41911;52.362;4.978;2023-05-07T00:01:58;101646.49;;;16.50;51.29
55687;BME280;41911;52.362;4.978;2023-05-07T00:02:29;101648.45;;;16.08;51.28
55687;BME280;41911;52.362;4.978;2023-05-07T00:02:59;101648.89;;;16.42;51.38
55687;BME280;41911;52.362;4.978;2023-05-07T00:03:32;101649.29;;;16.74;51.37
55687;BME280;41911;52.362;4.978;2023-05-07T00:04:03;101649.20;;;16.50;51.53
55687;BME280;41911;52.362;4.978;2023-05-07T00:04:36;101649.86;;;16.54;51.50
55687;BME280;41911;52.362;4.978;2023-05-07T00:05:07;101649.62;;;16.26;51.45
55687;BME280;41911;52.362;4.978;2023-05-07T00:05:38;101648.76;;;16.54;51.40
55687;BME280;41911;52.362;4.978;2023-05-07T00:06:09;101648.59;;;16.75;51.49
55687;BME280;41911;52.362;4.978;2023-05-07T00:06:40;101650.51;;;16.52;51.45
55687;BME280;41911;52.362;4.978;2023-05-07T00:07:11;101648.54;;;16.78;51.39
55687;BME280;41911;52.362;4.978;2023-05-07T00:07:42;101649.57;;;16.57;51.32
55687;BME280;41911;52.362;4.978;2023-05-07T00:08:13;101650.28;;;16.38;51.31
55687;BME280;41911;52.362;4.978;2023-05-07T00:08:44;101649.20;;;16.48;51.36
55687;BME280;41911;52.362;4.978;2023-05-07T00:09:15;101647.85;;;16.54;51.50
55687;BME280;41911;52.362;4.978;2023-05-07T00:09:46;101650.98;;;16.46;51.40
55687;BME280;41911;52.362;4.978;2023-05-07T00:10:17;101649.89;;;16.40;51.41
55687;BME280;41911;52.362;4.978;2023-05-07T00:10:48;101649.29;;;16.37;51.43
55687;BME280;41911;52.362;4.978;2023-05-07T00:11:19;101651.50;;;16.37;51.16
55687;BME280;41911;52.362;4.978;2023-05-07T00:11:50;101652.10;;;16.33;51.35
55687;BME280;41911;52.362;4.978;2023-05-07T00:12:21;101654.14;;;16.34;51.51
55687;BME280;41911;52.362;4.978;2023-05-07T00:12:52;101654.28;;;16.30;51.53
55687;BME280;41911;52.362;4.978;2023-05-07T00:13:23;101654.05;;;15.89;51.32
55687;BME280;41911;52.362;4.978;2023-05-07T00:13:54;101655.44;;;16.26;51.49
55687;BME280;41911;52.362;4.978;2023-05-07T00:14:25;101656.74;;;16.47;51.50
55687;BME280;41911;52.362;4.978;2023-05-07T00:14:56;101656.52;;;16.34;51.52
55687;BME280;41911;52.362;4.978;2023-05-07T00:15:27;101657.14;;;16.26;51.51
55687;BME280;41911;52.362;4.978;2023-05-07T00:15:58;101657.71;;;16.54;51.38
55687;BME280;41911;52.362;4.978;2023-05-07T00:16:28;101656.85;;;16.45;51.41
55687;BME280;41911;52.362;4.978;2023-05-07T00:16:59;101655.51;;;16.16;51.77
55687;BME280;41911;52.362;4.978;2023-05-07T00:17:31;101655.93;;;16.17;51.52
55687;BME280;41911;52.362;4.978;2023-05-07T00:18:02;101656.60;;;16.52;51.67
55687;BME280;41911;52.362;4.978;2023-05-07T00:18:33;101654.63;;;16.24;51.44
55687;BME280;41911;52.362;4.978;2023-05-07T00:19:04;101655.39;;;16.38;51.54
55687;BME280;41911;52.362;4.978;2023-05-07T00:19:35;101655.75;;;16.17;51.49
55687;BME280;41911;52.362;4.978;2023-05-07T00:20:07;101657.02;;;16.46;51.56
55687;BME280;41911;52.362;4.978;2023-05-07T00:20:38;101654.98;;;16.42;51.51
55687;BME280;41911;52.362;4.978;2023-05-07T00:21:09;101654.95;;;16.23;51.52
55687;BME280;41911;52.362;4.978;2023-05-07T00:21:40;101653.91;;;16.14;51.38
55687;BME280;41911;52.362;4.978;2023-05-07T00:22:11;101654.70;;;16.32;51.39
55687;BME280;41911;52.362;4.978;2023-05-07T00:22:43;101653.58;;;16.14;51.52
55687;BME280;41911;52.362;4.978;2023-05-07T00:23:14;101653.31;;;16.11;51.51
55687;BME280;41911;52.362;4.978;2023-05-07T00:23:45;101651.88;;;16.35;51.38
55687;BME280;41911;52.362;4.978;2023-05-07T00:24:16;101652.33;;;15.81;51.38
55687;BME280;41911;52.362;4.978;2023-05-07T00:24:47;101654.88;;;16.32;51.35
55687;BME280;41911;52.362;4.978;2023-05-07T00:25:18;101654.51;;;16.39;51.57
55687;BME280;41911;52.362;4.978;2023-05-07T00:25:49;101652.99;;;16.27;51.37
55687;BME280;41911;52.362;4.978;2023-05-07T00:26:20;101653.49;;;16.29;51.39
55687;BME280;41911;52.362;4.978;2023-05-07T00:26:51;101653.96;;;16.27;51.38
55687;BME280;41911;52.362;4.978;2023-05-07T00:27:22;101654.15;;;16.23;51.19
55687;BME280;41911;52.362;4.978;2023-05-07T00:27:53;101654.42;;;15.92;51.33
55687;BME280;41911;52.362;4.978;2023-05-07T00:28:24;101653.18;;;16.20;51.64
55687;BME280;41911;52.362;4.978;2023-05-07T00:28:55;101653.93;;;15.83;51.58
55687;BME280;41911;52.362;4.978;2023-05-07T00:29:26;101653.12;;;15.92;51.55
55687;BME280;41911;52.362;4.978;2023-05-07T00:29:57;101652.49;;;16.24;51.59
55687;BME280;41911;52.362;4.978;2023-05-07T00:30:28;101652.65;;;16.21;51.53
55687;BME280;41911;52.362;4.978;2023-05-07T00:30:59;101651.29;;;16.12;51.44
55687;BME280;41911;52.362;4.978;2023-05-07T00:31:30;101650.26;;;16.20;51.36
55687;BME280;41911;52.362;4.978;2023-05-07T00:32:00;101651.59;;;15.92;51.41
55687;BME280;41911;52.362;4.978;2023-05-07T00:32:31;101649.55;;;15.93;51.49
55687;BME280;41911;52.362;4.978;2023-05-07T00:33:02;101650.32;;;16.22;51.50
55687;BME280;41911;52.362;4.978;2023-05-07T00:33:33;101653.03;;;16.22;51.33
55687;BME280;41911;52.362;4.978;2023-05-07T00:34:04;101651.31;;;16.15;51.48
55687;BME280;41911;52.362;4.978;2023-05-07T00:34:35;101653.78;;;15.94;51.55
55687;BME280;41911;52.362;4.978;2023-05-07T00:35:07;101654.97;;;16.23;51.41
55687;BME280;41911;52.362;4.978;2023-05-07T00:35:38;101653.27;;;16.16;51.24
55687;BME280;41911;52.362;4.978;2023-05-07T00:36:09;101653.11;;;16.22;51.37
55687;BME280;41911;52.362;4.978;2023-05-07T00:36:42;101652.51;;;16.21;51.35
55687;BME280;41911;52.362;4.978;2023-05-07T00:37:13;101653.00;;;16.14;51.54
55687;BME280;41911;52.362;4.978;2023-05-07T00:37:44;101651.39;;;15.84;51.60
55687;BME280;41911;52.362;4.978;2023-05-07T00:38:15;101649.58;;;16.13;51.49
55687;BME280;41911;52.362;4.978;2023-05-07T00:38:46;101650.26;;;16.19;51.38
55687;BME280;41911;52.362;4.978;2023-05-07T00:39:17;101649.01;;;16.19;51.52
55687;BME280;41911;52.362;4.978;2023-05-07T00:39:48;101649.19;;;16.12;51.40
55687;BME280;41911;52.362;4.978;2023-05-07T00:40:19;101648.39;;;16.18;51.18
55687;BME280;41911;52.362;4.978;2023-05-07T00:40:50;101649.63;;;16.18;51.23
55687;BME280;41911;52.362;4.978;2023-05-07T00:41:21;101648.03;;;16.18;51.22
55687;BME280;41911;52.362;4.978;2023-05-07T00:41:52;101650.38;;;16.10;51.07
55687;BME280;41911;52.362;4.978;2023-05-07T00:42:23;101648.75;;;15.86;51.10
55687;BME280;41911;52.362;4.978;2023-05-07T00:42:54;101646.15;;;16.16;51.03
55687;BME280;41911;52.362;4.978;2023-05-07T00:43:24;101647.48;;;16.16;51.04
55687;BME280;41911;52.362;4.978;2023-05-07T00:43:56;101645.25;;;16.08;51.03
55687;BME280;41911;52.362;4.978;2023-05-07T00:44:27;101646.52;;;16.43;51.14
55687;BME280;41911;52.362;4.978;2023-05-07T00:44:58;101645.17;;;16.06;51.10
55687;BME280;41911;52.362;4.978;2023-05-07T00:45:29;101644.49;;;16.05;51.03
55687;BME280;41911;52.362;4.978;2023-05-07T00:46:00;101644.14;;;15.83;51.07
55687;BME280;41911;52.362;4.978;2023-05-07T00:46:33;101643.74;;;16.12;51.22
55687;BME280;41911;52.362;4.978;2023-05-07T00:47:05;101644.17;;;16.10;51.04
55687;BME280;41911;52.362;4.978;2023-05-07T00:47:36;101645.09;;;15.81;51.07
55687;BME280;41911;52.362;4.978;2023-05-07T00:48:07;101645.75;;;16.11;51.23
55687;BME280;41911;52.362;4.978;2023-05-07T00:48:38;101645.76;;;15.81;51.28
55687;BME280;41911;52.362;4.978;2023-05-07T00:49:09;101645.72;;;15.73;51.09
55687;BME280;41911;52.362;4.978;2023-05-07T00:49:42;101647.38;;;16.07;51.06
55687;BME280;41911;52.362;4.978;2023-05-07T00:50:14;101647.26;;;16.05;51.07
55687;BME280;41911;52.362;4.978;2023-05-07T00:50:45;101645.88;;;16.13;51.20
55687;BME280;41911;52.362;4.978;2023-05-07T00:51:16;101646.33;;;16.05;51.15
55687;BME280;41911;52.362;4.978;2023-05-07T00:51:47;101647.30;;;15.97;51.15
55687;BME280;41911;52.362;4.978;2023-05-07T00:52:20;101645.05;;;16.05;51.15
55687;BME280;41911;52.362;4.978;2023-05-07T00:52:53;101644.52;;;15.74;51.16
55687;BME280;41911;52.362;4.978;2023-05-07T00:53:24;101645.04;;;16.04;51.26
55687;BME280;41911;52.362;4.978;2023-05-07T00:53:55;101644.04;;;16.03;51.30
55687;BME280;41911;52.362;4.978;2023-05-07T00:54:26;101642.55;;;15.97;51.23
55687;BME280;41911;52.362;4.978;2023-05-07T00:54:58;101642.67;;;16.02;51.31
55687;BME280;41911;52.362;4.978;2023-05-07T00:55:33;101641.73;;;15.71;51.22
55687;BME280;41911;52.362;4.978;2023-05-07T00:56:05;101640.58;;;16.02;51.24
55687;BME280;41911;52.362;4.978;2023-05-07T00:56:36;101639.26;;;15.67;51.24
55687;BME280;41911;52.362;4.978;2023-05-07T00:57:09;101641.60;;;15.94;51.20
55687;BME280;41911;52.362;4.978;2023-05-07T00:57:41;101639.96;;;16.02;51.31
55687;BME280;41911;52.362;4.978;2023-05-07T00:58:12;101641.58;;;15.94;51.52
55687;BME280;41911;52.362;4.978;2023-05-07T00:58:43;101641.09;;;16.02;51.28
55687;BME280;41911;52.362;4.978;2023-05-07T00:59:15;101639.58;;;16.04;51.24
55687;BME280;41911;52.362;4.978;2023-05-07T00:59:48;101640.47;;;15.97;51.35
55687;BME280;41911;52.362;4.978;2023-05-07T01:00:19;101640.06;;;16.34;51.31
55687;BME280;41911;52.362;4.978;2023-05-07T01:00:50;101639.41;;;16.07;51.38
55687;BME280;41911;52.362;4.978;2023-05-07T01:01:21;101641.04;;;15.80;51.34
55687;BME280;41911;52.362;4.978;2023-05-07T01:01:52;101640.72;;;16.01;51.39
55687;BME280;41911;52.362;4.978;2023-05-07T01:02:23;101640.97;;;15.80;51.42
55687;BME280;41911;52.362;4.978;2023-05-07T01:02:54;101641.71;;;16.02;51.43
55687;BME280;41911;52.362;4.978;2023-05-07T01:03:25;101641.46;;;16.08;51.33
55687;BME280;41911;52.362;4.978;2023-05-07T01:03:56;101641.65;;;16.09;51.32
55687;BME280;41911;52.362;4.978;2023-05-07T01:04:27;101641.82;;;15.82;51.34
55687;BME280;41911;52.362;4.978;2023-05-07T01:04:58;101640.40;;;15.84;51.35
55687;BME280;41911;52.362;4.978;2023-05-07T01:05:31;101641.88;;;16.03;51.23
55687;BME280;41911;52.362;4.978;2023-05-07T01:06:03;101641.53;;;16.11;51.33
55687;BME280;41911;52.362;4.978;2023-05-07T01:06:35;101644.74;;;15.81;51.50
55687;BME280;41911;52.362;4.978;2023-05-07T01:07:06;101644.44;;;16.06;51.45
55687;BME280;41911;52.362;4.978;2023-05-07T01:07:38;101645.18;;;16.13;51.44
55687;BME280;41911;52.362;4.978;2023-05-07T01:08:10;101645.08;;;16.13;51.42
55687;BME280;41911;52.362;4.978;2023-05-07T01:08:41;101644.32;;;15.84;51.43
55687;BME280;41911;52.362;4.978;2023-05-07T01:09:13;101645.04;;;15.86;51.52
55687;BME280;41911;52.362;4.978;2023-05-07T01:09:44;101645.11;;;16.03;51.49
55687;BME280;41911;52.362;4.978;2023-05-07T01:10:15;101643.77;;;16.13;51.45
55687;BME280;41911;52.362;4.978;2023-05-07T01:10:47;101642.63;;;16.06;51.52
55687;BME280;41911;52.362;4.978;2023-05-07T01:11:18;101644.93;;;16.15;51.57
55687;BME280;41911;52.362;4.978;2023-05-07T01:11:50;101643.74;;;16.18;51.65
55687;BME280;41911;52.362;4.978;2023-05-07T01:12:22;101641.38;;;16.14;51.72
55687;BME280;41911;52.362;4.978;2023-05-07T01:12:54;101640.95;;;16.22;51.64
55687;BME280;41911;52.362;4.978;2023-05-07T01:13:27;101639.80;;;16.20;51.49
55687;BME280;41911;52.362;4.978;2023-05-07T01:13:59;101643.25;;;16.14;51.35
55687;BME280;41911;52.362;4.978;2023-05-07T01:14:31;101642.12;;;16.23;51.34
55687;BME280;41911;52.362;4.978;2023-05-07T01:15:02;101643.42;;;16.22;51.33
55687;BME280;41911;52.362;4.978;2023-05-07T01:15:34;101641.99;;;15.93;51.35
55687;BME280;41911;52.362;4.978;2023-05-07T01:16:06;101642.33;;;15.94;51.57
55687;BME280;41911;52.362;4.978;2023-05-07T01:16:39;101643.19;;;16.15;51.41
55687;BME280;41911;52.362;4.978;2023-05-07T01:17:10;101643.90;;;15.87;51.35
55687;BME280;41911;52.362;4.978;2023-05-07T01:17:42;101644.11;;;15.86;51.30
55687;BME280;41911;52.362;4.978;2023-05-07T01:18:13;101644.80;;;15.81;51.26
55687;BME280;41911;52.362;4.978;2023-05-07T01:18:45;101642.41;;;15.95;51.30
55687;BME280;41911;52.362;4.978;2023-05-07T01:19:18;101642.88;;;15.88;51.36
55687;BME280;41911;52.362;4.978;2023-05-07T01:19:49;101642.20;;;16.18;51.37
55687;BME280;41911;52.362;4.978;2023-05-07T01:20:20;101642.79;;;15.95;51.55
55687;BME280;41911;52.362;4.978;2023-05-07T01:20:54;101643.10;;;15.88;51.51
55687;BME280;41911;52.362;4.978;2023-05-07T01:21:26;101643.07;;;16.19;51.48
55687;BME280;41911;52.362;4.978;2023-05-07T01:22:10;101639.82;;;16.27;51.52
55687;BME280;41911;52.362;4.978;2023-05-07T01:22:43;101639.87;;;15.88;51.42
55687;BME280;41911;52.362;4.978;2023-05-07T01:23:14;101638.71;;;16.27;51.49
55687;BME280;41911;52.362;4.978;2023-05-07T01:23:46;101639.25;;;16.28;51.53
55687;BME280;41911;52.362;4.978;2023-05-07T01:24:18;101637.71;;;16.30;51.54
55687;BME280;41911;52.362;4.978;2023-05-07T01:24:49;101638.53;;;15.68;51.61
55687;BME280;41911;52.362;4.978;2023-05-07T01:25:20;101639.52;;;16.06;51.63
55687;BME280;41911;52.362;4.978;2023-05-07T01:25:52;101640.00;;;16.08;51.73
55687;BME280;41911;52.362;4.978;2023-05-07T01:26:23;101639.55;;;16.37;51.71
55687;BME280;41911;52.362;4.978;2023-05-07T01:26:54;101640.63;;;16.30;51.38
55687;BME280;41911;52.362;4.978;2023-05-07T01:27:25;101640.72;;;16.30;51.48
55687;BME280;41911;52.362;4.978;2023-05-07T01:27:56;101638.99;;;16.07;51.47
55687;BME280;41911;52.362;4.978;2023-05-07T01:28:27;101641.96;;;16.08;51.35
55687;BME280;41911;52.362;4.978;2023-05-07T01:28:58;101642.52;;;16.00;51.31
55687;BME280;41911;52.362;4.978;2023-05-07T01:29:29;101641.20;;;16.26;51.37
55687;BME280;41911;52.362;4.978;2023-05-07T01:30:00;101641.10;;;16.37;51.30
55687;BME280;41911;52.362;4.978;2023-05-07T01:30:33;101641.12;;;16.36;51.48
55687;BME280;41911;52.362;4.978;2023-05-07T01:31:05;101639.71;;;16.02;51.46
55687;BME280;41911;52.362;4.978;2023-05-07T01:31:37;101639.64;;;15.85;51.53
55687;BME280;41911;52.362;4.978;2023-05-07T01:32:10;101640.69;;;16.09;51.45
55687;BME280;41911;52.362;4.978;2023-05-07T01:32:47;101640.64;;;16.09;51.15
55687;BME280;41911;52.362;4.978;2023-05-07T01:33:21;101641.51;;;16.05;51.30
55687;BME280;41911;52.362;4.978;2023-05-07T01:33:53;101640.97;;;15.79;51.30
55687;BME280;41911;52.362;4.978;2023-05-07T01:34:25;101639.88;;;16.18;51.19
55687;BME280;41911;52.362;4.978;2023-05-07T01:34:58;101639.06;;;15.83;51.11
55687;BME280;41911;52.362;4.978;2023-05-07T01:35:34;101641.31;;;15.93;51.14
55687;BME280;41911;52.362;4.978;2023-05-07T01:36:07;101639.14;;;16.25;50.98
55687;BME280;41911;52.362;4.978;2023-05-07T01:36:40;101641.21;;;16.19;50.73
55687;BME280;41911;52.362;4.978;2023-05-07T01:37:14;101640.65;;;15.97;50.90
55687;BME280;41911;52.362;4.978;2023-05-07T01:37:45;101643.25;;;15.87;50.91
55687;BME280;41911;52.362;4.978;2023-05-07T01:38:18;101644.63;;;15.94;50.79
55687;BME280;41911;52.362;4.978;2023-05-07T01:38:49;101644.40;;;15.93;50.83
55687;BME280;41911;52.362;4.978;2023-05-07T01:39:21;101643.09;;;15.88;50.81
55687;BME280;41911;52.362;4.978;2023-05-07T01:39:52;101643.24;;;16.19;50.79
55687;BME280;41911;52.362;4.978;2023-05-07T01:40:24;101643.69;;;16.23;50.84
55687;BME280;41911;52.362;4.978;2023-05-07T01:40:56;101640.38;;;16.26;50.88
55687;BME280;41911;52.362;4.978;2023-05-07T01:41:28;101640.13;;;15.97;50.78
55687;BME280;41911;52.362;4.978;2023-05-07T01:41:59;101640.86;;;16.29;50.85
55687;BME280;41911;52.362;4.978;2023-05-07T01:42:31;101640.26;;;16.38;50.78
55687;BME280;41911;52.362;4.978;2023-05-07T01:43:02;101637.05;;;16.02;50.71
55687;BME280;41911;52.362;4.978;2023-05-07T01:43:34;101636.43;;;16.01;50.59
55687;BME280;41911;52.362;4.978;2023-05-07T01:44:05;101638.14;;;16.03;50.60
55687;BME280;41911;52.362;4.978;2023-05-07T01:44:36;101635.68;;;16.31;50.53
55687;BME280;41911;52.362;4.978;2023-05-07T01:45:08;101635.73;;;16.00;50.45
55687;BME280;41911;52.362;4.978;2023-05-07T01:45:40;101636.88;;;15.95;50.29
55687;BME280;41911;52.362;4.978;2023-05-07T01:46:12;101638.96;;;16.51;50.34
55687;BME280;41911;52.362;4.978;2023-05-07T01:46:43;101637.09;;;16.25;50.50
55687;BME280;41911;52.362;4.978;2023-05-07T01:47:14;101636.87;;;15.96;50.52
55687;BME280;41911;52.362;4.978;2023-05-07T01:47:46;101635.35;;;16.22;50.68
55687;BME280;41911;52.362;4.978;2023-05-07T01:48:18;101637.36;;;15.96;50.43
55687;BME280;41911;52.362;4.978;2023-05-07T01:48:49;101636.97;;;15.98;50.49
55687;BME280;41911;52.362;4.978;2023-05-07T01:49:21;101636.70;;;15.96;50.50
55687;BME280;41911;52.362;4.978;2023-05-07T01:49:52;101635.32;;;15.96;50.55
55687;BME280;41911;52.362;4.978;2023-05-07T01:50:23;101634.76;;;16.26;50.51
55687;BME280;41911;52.362;4.978;2023-05-07T01:50:55;101635.32;;;15.99;50.48
55687;BME280;41911;52.362;4.978;2023-05-07T01:51:26;101635.04;;;15.92;50.58
55687;BME280;41911;52.362;4.978;2023-05-07T01:51:58;101634.85;;;15.99;50.45
55687;BME280;41911;52.362;4.978;2023-05-07T01:52:29;101631.97;;;15.99;50.41
55687;BME280;41911;52.362;4.978;2023-05-07T01:53:01;101633.12;;;16.05;50.43
55687;BME280;41911;52.362;4.978;2023-05-07T01:53:35;101633.56;;;15.95;50.49
55687;BME280;41911;52.362;4.978;2023-05-07T01:54:06;101632.57;;;16.03;50.48
55687;BME280;41911;52.362;4.978;2023-05-07T01:54:37;101633.39;;;16.12;50.52
55687;BME280;41911;52.362;4.978;2023-05-07T01:55:09;101633.75;;;16.07;50.60
55687;BME280;41911;52.362;4.978;2023-05-07T01:55:40;101633.25;;;16.10;50.51
55687;BME280;41911;52.362;4.978;2023-05-07T01:56:11;101634.55;;;16.20;50.51
55687;BME280;41911;52.362;4.978;2023-05-07T01:56:42;101634.72;;;16.14;50.56
55687;BME280;41911;52.362;4.978;2023-05-07T01:57:13;101634.48;;;16.18;50.66
55687;BME280;41911;52.362;4.978;2023-05-07T01:57:43;101634.06;;;16.49;50.66
55687;BME280;41911;52.362;4.978;2023-05-07T01:58:14;101632.59;;;16.20;50.60
55687;BME280;41911;52.362;4.978;2023-05-07T01:58:45;101634.22;;;16.22;50.58
55687;BME280;41911;52.362;4.978;2023-05-07T01:59:16;101633.85;;;16.25;50.52
55687;BME280;41911;52.362;4.978;2023-05-07T01:59:47;101633.49;;;16.26;50.62
55687;BME280;41911;52.362;4.978;2023-05-07T02:00:19;101633.07;;;16.29;50.62
55687;BME280;41911;52.362;4.978;2023-05-07T02:00:50;101632.43;;;16.28;50.59
55687;BME280;41911;52.362;4.978;2023-05-07T02:01:21;101634.90;;;16.28;50.57
55687;BME280;41911;52.362;4.978;2023-05-07T02:01:52;101634.81;;;16.23;50.50
55687;BME280;41911;52.362;4.978;2023-05-07T02:02:23;101637.41;;;16.33;50.55
55687;BME280;41911;52.362;4.978;2023-05-07T02:02:54;101636.91;;;16.33;50.39
55687;BME280;41911;52.362;4.978;2023-05-07T02:03:25;101635.55;;;16.63;50.47
55687;BME280;41911;52.362;4.978;2023-05-07T02:03:55;101634.48;;;16.35;50.60
55687;BME280;41911;52.362;4.978;2023-05-07T02:04:26;101634.53;;;16.31;50.53
55687;BME280;41911;52.362;4.978;2023-05-07T02:04:58;101635.42;;;16.35;50.48
55687;BME280;41911;52.362;4.978;2023-05-07T02:05:29;101636.43;;;16.34;50.38
55687;BME280;41911;52.362;4.978;2023-05-07T02:06:00;101636.86;;;16.29;50.42
55687;BME280;41911;52.362;4.978;2023-05-07T02:06:31;101634.75;;;16.10;50.48
55687;BME280;41911;52.362;4.978;2023-05-07T02:07:01;101634.57;;;16.39;50.49
55687;BME280;41911;52.362;4.978;2023-05-07T02:07:32;101634.48;;;16.41;50.54
55687;BME280;41911;52.362;4.978;2023-05-07T02:08:04;101634.53;;;16.03;50.34
55687;BME280;41911;52.362;4.978;2023-05-07T02:08:34;101635.67;;;16.37;50.45
55687;BME280;41911;52.362;4.978;2023-05-07T02:09:05;101632.40;;;16.11;50.49
55687;BME280;41911;52.362;4.978;2023-05-07T02:09:37;101632.53;;;16.43;50.44
55687;BME280;41911;52.362;4.978;2023-05-07T02:10:09;101632.20;;;16.36;50.39
55687;BME280;41911;52.362;4.978;2023-05-07T02:10:40;101629.30;;;16.46;50.43
55687;BME280;41911;52.362;4.978;2023-05-07T02:11:11;101630.90;;;16.39;50.45
55687;BME280;41911;52.362;4.978;2023-05-07T02:11:42;101628.38;;;16.46;50.40
55687;BME280;41911;52.362;4.978;2023-05-07T02:12:13;101630.19;;;16.40;50.37
55687;BME280;41911;52.362;4.978;2023-05-07T02:12:44;101629.98;;;16.19;50.38
55687;BME280;41911;52.362;4.978;2023-05-07T02:13:15;101630.97;;;16.48;50.43
55687;BME280;41911;52.362;4.978;2023-05-07T02:13:46;101630.96;;;16.49;50.42
55687;BME280;41911;52.362;4.978;2023-05-07T02:14:17;101633.02;;;16.52;50.41
55687;BME280;41911;52.362;4.978;2023-05-07T02:14:47;101633.69;;;16.54;50.41
55687;BME280;41911;52.362;4.978;2023-05-07T02:15:18;101633.61;;;16.55;50.41
55687;BME280;41911;52.362;4.978;2023-05-07T02:15:49;101635.78;;;16.50;50.26
55687;BME280;41911;52.362;4.978;2023-05-07T02:16:20;101633.84;;;16.57;50.31
55687;BME280;41911;52.362;4.978;2023-05-07T02:16:51;101633.31;;;16.58;50.26
55687;BME280;41911;52.362;4.978;2023-05-07T02:17:22;101632.75;;;16.29;50.28
55687;BME280;41911;52.362;4.978;2023-05-07T02:18:06;101630.99;;;16.59;50.33
55687;BME280;41911;52.362;4.978;2023-05-07T02:18:37;101631.97;;;16.59;50.30
55687;BME280;41911;52.362;4.978;2023-05-07T02:19:08;101630.71;;;16.59;50.29
55687;BME280;41911;52.362;4.978;2023-05-07T02:19:39;101628.88;;;16.29;50.22
55687;BME280;41911;52.362;4.978;2023-05-07T02:20:10;101628.70;;;16.01;50.17
55687;BME280;41911;52.362;4.978;2023-05-07T02:20:42;101628.47;;;16.55;50.25
55687;BME280;41911;52.362;4.978;2023-05-07T02:21:13;101628.56;;;16.58;50.21
55687;BME280;41911;52.362;4.978;2023-05-07T02:21:44;101628.40;;;16.62;50.25
55687;BME280;41911;52.362;4.978;2023-05-07T02:22:14;101627.55;;;16.48;50.24
55687;BME280;41911;52.362;4.978;2023-05-07T02:22:45;101627.82;;;16.64;50.26
55687;BME280;41911;52.362;4.978;2023-05-07T02:23:16;101628.34;;;16.30;50.26
55687;BME280;41911;52.362;4.978;2023-05-07T02:23:47;101627.09;;;16.36;50.27
55687;BME280;41911;52.362;4.978;2023-05-07T02:24:18;101624.36;;;16.65;50.33
55687;BME280;41911;52.362;4.978;2023-05-07T02:24:49;101624.27;;;16.66;50.12
55687;BME280;41911;52.362;4.978;2023-05-07T02:25:20;101625.66;;;16.66;50.12
55687;BME280;41911;52.362;4.978;2023-05-07T02:25:51;101626.46;;;16.67;50.17
55687;BME280;41911;52.362;4.978;2023-05-07T02:26:22;101626.25;;;16.66;50.18
55687;BME280;41911;52.362;4.978;2023-05-07T02:26:53;101625.70;;;16.66;50.14
55687;BME280;41911;52.362;4.978;2023-05-07T02:27:24;101621.79;;;16.10;50.09
55687;BME280;41911;52.362;4.978;2023-05-07T02:27:55;101624.24;;;16.68;50.01
55687;BME280;41911;52.362;4.978;2023-05-07T02:28:25;101624.15;;;16.36;50.14
55687;BME280;41911;52.362;4.978;2023-05-07T02:28:56;101625.92;;;16.44;49.97
55687;BME280;41911;52.362;4.978;2023-05-07T02:29:27;101623.34;;;16.70;50.10
55687;BME280;41911;52.362;4.978;2023-05-07T02:29:58;101623.30;;;16.35;50.10
55687;BME280;41911;52.362;4.978;2023-05-07T02:30:29;101622.79;;;16.63;50.03
55687;BME280;41911;52.362;4.978;2023-05-07T02:31:00;101624.64;;;16.61;49.88
55687;BME280;41911;52.362;4.978;2023-05-07T02:31:32;101623.30;;;16.53;49.75
55687;BME280;41911;52.362;4.978;2023-05-07T02:32:03;101625.06;;;16.57;49.83
55687;BME280;41911;52.362;4.978;2023-05-07T02:32:34;101625.59;;;16.56;49.90
55687;BME280;41911;52.362;4.978;2023-05-07T02:33:05;101625.07;;;16.03;49.85
55687;BME280;41911;52.362;4.978;2023-05-07T02:33:36;101624.51;;;16.33;49.91
55687;BME280;41911;52.362;4.978;2023-05-07T02:34:07;101624.19;;;16.54;49.80
55687;BME280;41911;52.362;4.978;2023-05-07T02:34:38;101624.89;;;16.67;49.68
55687;BME280;41911;52.362;4.978;2023-05-07T02:35:09;101622.27;;;16.43;49.85
55687;BME280;41911;52.362;4.978;2023-05-07T02:35:40;101621.66;;;16.54;49.81
55687;BME280;41911;52.362;4.978;2023-05-07T02:36:13;101622.33;;;16.82;49.82
55687;BME280;41911;52.362;4.978;2023-05-07T02:36:44;101619.88;;;16.48;50.02
55687;BME280;41911;52.362;4.978;2023-05-07T02:37:15;101622.22;;;16.52;49.92
55687;BME280;41911;52.362;4.978;2023-05-07T02:37:46;101620.34;;;16.43;50.03
55687;BME280;41911;52.362;4.978;2023-05-07T02:38:17;101621.76;;;16.48;49.84
55687;BME280;41911;52.362;4.978;2023-05-07T02:38:48;101621.34;;;15.85;49.92
55687;BME280;41911;52.362;4.978;2023-05-07T02:39:19;101623.32;;;16.44;49.89
55687;BME280;41911;52.362;4.978;2023-05-07T02:39:49;101625.33;;;16.45;50.01
55687;BME280;41911;52.362;4.978;2023-05-07T02:40:20;101625.76;;;16.45;50.07
55687;BME280;41911;52.362;4.978;2023-05-07T02:40:51;101626.74;;;16.18;50.01
55687;BME280;41911;52.362;4.978;2023-05-07T02:41:22;101627.63;;;16.75;50.01
55687;BME280;41911;52.362;4.978;2023-05-07T02:41:53;101629.13;;;15.90;50.07
55687;BME280;41911;52.362;4.978;2023-05-07T02:42:24;101627.22;;;16.22;50.09
55687;BME280;41911;52.362;4.978;2023-05-07T02:42:55;101629.46;;;16.20;49.80
55687;BME280;41911;52.362;4.978;2023-05-07T02:43:26;101628.53;;;16.48;49.95
55687;BME280;41911;52.362;4.978;2023-05-07T02:43:57;101627.86;;;16.51;49.96
55687;BME280;41911;52.362;4.978;2023-05-07T02:44:28;101628.09;;;16.53;49.95